Berens River, Canada
Current Conditions -  °F | °C
As of 10:00 AM on Wednesday 22 Oct 2014 (Local Time) from CYNE Reporting Station
Clear Clear  
Wind Chill: 48°   Ceiling: Unl
Heat Index: 48°   Visibility: 9mi
Dew Point: 41°   Wind: 3mph
Humidity: 76%   Direction: 130°SE
Pressure: 29.63"   Gusts: NA
Location:  52.37°N, 97.03°W
Report Text: CYNE 221500Z AUTO 13003KT 9SM CLR 09/05 A2963 RMK SLP040
Loading
Personal Weather Stations






























Interactive Weather Map
Tropical Storm Tracking
New forecast layout! Learn more

10-Day Weather Forecast

Advertisements
Track Severe Weather on mobile